Time;durP1;ratioP1;P1;durP2;ratioP2;P2;SDS_P1;SDS_P2;PMS_P1;PMS_P2;Temp;Humidity;BMP_temperature;BMP_pressure;BME280_temperature;BME280_humidity;BME280_pressure;Samples;Min_cycle;Max_cycle;Signal;HPM_P1;HPM_P2
2020/12/22 00:02:32;;;;;;;9.60;8.47;;;;;;;10.03;67.67;100565.19;6088838;29;20237;-75
2020/12/22 00:05:53;;;;;;;8.97;8.17;;;;;;;9.78;69.29;100559.38;6083738;29;20923;-73
2020/12/22 00:09:14;;;;;;;8.13;7.47;;;;;;;10.00;68.25;100556.53;6088483;29;20610;-74
2020/12/22 00:12:38;;;;;;;7.60;6.90;;;;;;;10.16;67.95;100568.53;6090236;29;20236;-75
2020/12/22 00:15:59;;;;;;;8.43;7.63;;;;;;;10.01;68.34;100566.94;6088823;29;20225;-74
2020/12/22 00:19:19;;;;;;;8.83;7.47;;;;;;;9.93;68.81;100547.09;6088282;29;21054;-74
2020/12/22 00:22:39;;;;;;;7.27;6.67;;;;;;;9.98;68.80;100535.78;6090186;29;21027;-74
2020/12/22 00:26:00;;;;;;;7.90;6.83;;;;;;;10.14;67.94;100530.34;6086560;29;20236;-74
2020/12/22 00:29:21;;;;;;;7.00;6.30;;;;;;;10.11;68.38;100535.63;6092031;29;20508;-75
2020/12/22 00:32:41;;;;;;;7.33;6.63;;;;;;;10.11;68.87;100520.00;6092332;29;20224;-73
2020/12/22 00:36:06;;;;;;;6.50;6.00;;;;;;;9.71;70.07;100515.22;6086785;29;20228;-73
2020/12/22 00:39:27;;;;;;;8.50;7.70;;;;;;;9.94;69.52;100517.59;6096386;29;20241;-74
2020/12/22 00:42:48;;;;;;;7.17;6.50;;;;;;;9.65;71.13;100501.44;6092186;29;20596;-74
2020/12/22 00:46:14;;;;;;;8.67;6.00;;;;;;;10.15;69.44;100493.06;6094262;29;20224;-74
2020/12/22 00:49:35;;;;;;;7.20;6.60;;;;;;;9.99;69.73;100485.44;6091861;29;20240;-75
2020/12/22 00:52:56;;;;;;;8.77;6.70;;;;;;;9.65;70.76;100475.44;6090705;29;20888;-75
2020/12/22 00:56:18;;;;;;;7.77;7.07;;;;;;;9.97;69.45;100476.81;6094351;29;20614;-73
2020/12/22 00:59:41;;;;;;;5.47;5.07;;;;;;;9.92;69.96;100472.53;6094865;29;20248;-74
2020/12/22 01:03:01;;;;;;;6.87;6.27;;;;;;;9.97;69.89;100468.16;6091038;28;20233;-73
2020/12/22 01:06:21;;;;;;;6.83;6.23;;;;;;;9.86;70.42;100473.47;6091158;29;20607;-73
2020/12/22 01:09:42;;;;;;;6.67;6.10;;;;;;;10.07;69.84;100471.50;6093595;29;20240;-73
2020/12/22 01:13:03;;;;;;;7.17;6.37;;;;;;;9.97;70.33;100474.19;6091849;29;20221;-74
2020/12/22 01:16:24;;;;;;;7.13;6.47;;;;;;;10.37;68.48;100463.31;6090738;29;20315;-73
2020/12/22 01:19:45;;;;;;;6.53;5.93;;;;;;;10.44;68.15;100462.34;6088767;29;20255;-74
2020/12/22 01:23:05;;;;;;;5.77;5.33;;;;;;;10.37;68.62;100458.13;6092520;29;20570;-74
2020/12/22 01:26:26;;;;;;;6.33;5.73;;;;;;;10.42;68.61;100448.47;6090760;28;20237;-74
2020/12/22 01:29:47;;;;;;;7.03;6.43;;;;;;;10.41;68.82;100451.09;6092751;29;20606;-75
2020/12/22 01:33:11;;;;;;;6.87;6.23;;;;;;;10.26;68.97;100452.16;6088391;29;20752;-74
2020/12/22 01:36:32;;;;;;;6.30;5.70;;;;;;;10.38;68.97;100444.19;6088053;29;20562;-75
2020/12/22 01:39:53;;;;;;;6.33;5.77;;;;;;;10.44;69.18;100435.44;6092411;29;20236;-73
2020/12/22 01:43:13;;;;;;;5.23;4.80;;;;;;;10.23;70.05;100439.19;6093432;29;20236;-74
2020/12/22 01:46:36;;;;;;;7.00;6.40;;;;;;;10.27;69.63;100424.38;6088179;29;20509;-74
2020/12/22 01:49:57;;;;;;;5.63;5.03;;;;;;;10.33;69.74;100422.59;6093479;29;20659;-74
2020/12/22 01:53:18;;;;;;;5.80;5.37;;;;;;;10.43;69.09;100416.38;6092101;29;20425;-74
2020/12/22 01:56:38;;;;;;;5.50;4.87;;;;;;;10.62;68.22;100403.06;6091340;29;20232;-75
2020/12/22 01:59:59;;;;;;;5.40;4.90;;;;;;;10.68;68.26;100402.09;6092167;29;20335;-75
2020/12/22 02:03:22;;;;;;;6.83;6.00;;;;;;;10.54;69.22;100394.50;6090004;29;20299;-73
2020/12/22 02:06:43;;;;;;;4.87;4.47;;;;;;;10.71;68.61;100392.50;6088136;29;20228;-74
2020/12/22 02:10:04;;;;;;;6.33;5.73;;;;;;;10.68;68.37;100387.31;6092255;29;20354;-74
2020/12/22 02:13:25;;;;;;;6.00;5.40;;;;;;;10.61;68.53;100386.59;6094884;29;20256;-74
2020/12/22 02:16:45;;;;;;;6.30;5.70;;;;;;;10.83;68.05;100376.66;6090317;29;20240;-74
2020/12/22 02:20:06;;;;;;;5.20;4.70;;;;;;;10.70;68.23;100369.97;6091584;29;20546;-75
2020/12/22 02:23:28;;;;;;;5.47;5.03;;;;;;;10.89;67.81;100369.63;6090859;29;20311;-74
2020/12/22 02:26:48;;;;;;;6.47;5.93;;;;;;;10.91;67.96;100368.72;6038435;29;20240;-73
2020/12/22 02:30:10;;;;;;;6.20;5.67;;;;;;;10.73;68.60;100363.84;6089951;29;20233;-73
2020/12/22 02:33:30;;;;;;;5.37;4.97;;;;;;;10.64;68.88;100354.41;6083450;28;20233;-73
2020/12/22 02:36:51;;;;;;;5.07;4.67;;;;;;;10.67;68.94;100343.97;6087406;29;20240;-74
2020/12/22 02:40:12;;;;;;;5.63;5.13;;;;;;;10.80;68.75;100337.66;6092100;29;20241;-74
2020/12/22 02:43:33;;;;;;;6.17;5.57;;;;;;;10.52;69.97;100333.78;6079174;29;20236;-73
2020/12/22 02:46:54;;;;;;;5.47;4.87;;;;;;;10.57;69.57;100321.56;6092814;29;20229;-73
2020/12/22 02:50:14;;;;;;;6.13;5.53;;;;;;;10.81;69.10;100313.31;6092702;29;20228;-74
2020/12/22 02:53:35;;;;;;;5.60;5.13;;;;;;;10.70;69.50;100307.47;6087398;29;20512;-73
2020/12/22 02:56:56;;;;;;;6.13;5.53;;;;;;;10.70;69.71;100307.47;6086588;29;20635;-74
2020/12/22 03:00:16;;;;;;;5.57;5.03;;;;;;;10.63;69.94;100305.84;6088120;29;20606;-74
2020/12/22 03:03:37;;;;;;;5.33;4.83;;;;;;;11.00;68.63;100306.03;6089384;29;20545;-74
2020/12/22 03:06:57;;;;;;;4.67;4.27;;;;;;;11.03;68.60;100299.88;6090023;29;20318;-74
2020/12/22 03:10:18;;;;;;;5.40;4.93;;;;;;;10.95;69.00;100288.75;6091518;29;20521;-74
2020/12/22 03:13:39;;;;;;;6.00;5.07;;;;;;;10.74;70.12;100285.69;6089179;29;20244;-74
2020/12/22 03:17:00;;;;;;;10.47;4.73;;;;;;;11.11;68.47;100277.16;6091222;29;20348;-74
2020/12/22 03:20:21;;;;;;;4.33;3.93;;;;;;;11.15;68.21;100268.38;6087313;29;20240;-73
2020/12/22 03:23:41;;;;;;;4.10;3.77;;;;;;;11.13;69.06;100259.75;6088213;29;20276;-74
2020/12/22 03:27:01;;;;;;;4.93;4.47;;;;;;;11.05;69.06;100259.03;6073542;29;20240;-73
2020/12/22 03:30:23;;;;;;;5.23;4.83;;;;;;;11.11;69.05;100248.50;6089464;28;20263;-74
2020/12/22 03:33:44;;;;;;;4.30;4.00;;;;;;;11.38;68.26;100238.34;6089041;29;20646;-74
2020/12/22 03:37:05;;;;;;;4.53;4.13;;;;;;;11.18;68.73;100231.81;6088263;29;20500;-72
2020/12/22 03:40:26;;;;;;;4.63;4.23;;;;;;;11.17;69.52;100219.69;6089499;28;20240;-74
2020/12/22 03:43:47;;;;;;;4.13;3.70;;;;;;;11.42;68.69;100219.19;6092383;29;20240;-73
2020/12/22 03:47:08;;;;;;;3.90;3.60;;;;;;;11.35;68.77;100209.75;6090683;29;20228;-73
2020/12/22 03:50:28;;;;;;;4.00;3.67;;;;;;;11.34;69.16;100202.81;6084777;29;20659;-74
2020/12/22 03:53:49;;;;;;;4.80;3.83;;;;;;;11.43;68.27;100200.03;6091718;29;20529;-74
2020/12/22 03:57:10;;;;;;;4.03;3.50;;;;;;;11.32;69.63;100196.78;6088707;29;20607;-73
2020/12/22 04:00:30;;;;;;;3.17;2.97;;;;;;;11.54;68.75;100174.56;6090756;29;20260;-73
2020/12/22 04:03:51;;;;;;;3.23;3.03;;;;;;;11.57;68.89;100186.66;6085397;29;20232;-73
2020/12/22 04:07:11;;;;;;;2.83;2.53;;;;;;;11.69;68.52;100185.50;6083178;29;20227;-74
2020/12/22 04:10:32;;;;;;;2.67;2.43;;;;;;;11.65;68.57;100189.09;6092519;29;20240;-72
2020/12/22 04:13:52;;;;;;;3.77;3.37;;;;;;;11.44;69.64;100175.69;6084139;29;20240;-74
2020/12/22 04:17:13;;;;;;;2.83;2.63;;;;;;;11.74;68.71;100186.28;6090958;29;20241;-74
2020/12/22 04:20:34;;;;;;;4.97;3.20;;;;;;;11.74;68.49;100179.28;6089815;29;20335;-74
2020/12/22 04:23:55;;;;;;;2.37;2.20;;;;;;;11.84;68.59;100177.31;6092846;29;20511;-73
2020/12/22 04:27:15;;;;;;;3.03;2.80;;;;;;;11.89;68.58;100183.34;6087600;29;20316;-74
2020/12/22 04:30:36;;;;;;;2.47;2.27;;;;;;;11.84;68.63;100177.31;6089933;29;20234;-75
2020/12/22 04:33:57;;;;;;;2.80;2.53;;;;;;;11.91;68.83;100173.72;6089303;29;20233;-74
2020/12/22 04:37:19;;;;;;;2.47;2.27;;;;;;;11.62;70.94;100164.81;6089694;29;25801;-74
2020/12/22 04:40:40;;;;;;;2.70;2.47;;;;;;;11.79;69.08;100179.22;6089057;29;21087;-73
2020/12/22 04:44:01;;;;;;;2.10;1.90;;;;;;;11.84;69.93;100172.09;6089794;29;20239;-74
2020/12/22 04:47:25;;;;;;;2.97;2.40;;;;;;;11.67;71.04;100162.09;6085565;29;20265;-75
2020/12/22 04:50:46;;;;;;;3.17;1.70;;;;;;;11.86;70.59;100157.28;6080059;29;20232;-74
2020/12/22 04:54:07;;;;;;;1.73;1.27;;;;;;;11.88;70.17;100158.09;6088678;29;20232;-73
2020/12/22 04:57:31;;;;;;;1.43;1.13;;;;;;;11.85;70.58;100158.19;6082308;29;20626;-74
2020/12/22 05:00:52;;;;;;;1.17;1.13;;;;;;;12.09;70.37;100155.88;6090283;29;20240;-74
2020/12/22 05:04:12;;;;;;;3.27;1.17;;;;;;;12.12;69.32;100153.19;6089045;29;20873;-74
2020/12/22 05:07:33;;;;;;;1.63;1.43;;;;;;;12.12;70.09;100150.59;6080888;29;20327;-75
2020/12/22 05:10:54;;;;;;;2.07;1.30;;;;;;;12.09;70.03;100148.03;6088891;29;20315;-74
2020/12/22 05:14:15;;;;;;;1.13;1.00;;;;;;;12.07;70.70;100152.44;6092551;29;20232;-74
2020/12/22 05:17:40;;;;;;;2.23;1.33;;;;;;;11.93;71.83;100153.66;6095293;29;20241;-74
2020/12/22 05:21:01;;;;;;;1.27;1.13;;;;;;;11.88;72.23;100155.47;6090415;29;20541;-74
2020/12/22 05:24:24;;;;;;;2.20;2.00;;;;;;;11.77;73.61;100158.38;6090188;29;20689;-75
2020/12/22 05:27:48;;;;;;;2.17;1.10;;;;;;;11.58;76.62;100157.94;6088944;29;20224;-75
2020/12/22 05:31:12;;;;;;;2.70;1.53;;;;;;;11.92;74.63;100156.28;6091924;29;20618;-73
2020/12/22 05:34:33;;;;;;;1.80;1.70;;;;;;;11.57;77.41;100166.69;6090315;29;20864;-74
2020/12/22 05:37:55;;;;;;;2.07;1.97;;;;;;;12.07;75.36;100160.28;6091352;29;20336;-74
2020/12/22 05:41:19;;;;;;;2.97;2.77;;;;;;;11.93;77.09;100160.63;6091836;29;20240;-74
2020/12/22 05:44:48;;;;;;;3.10;2.80;;;;;;;12.11;76.81;100151.47;6092378;29;20603;-74
2020/12/22 05:48:15;;;;;;;4.00;3.70;;;;;;;12.36;75.47;100152.53;6085874;29;20243;-75
2020/12/22 05:51:35;;;;;;;8.17;4.07;;;;;;;12.26;76.35;100158.91;6092971;29;20555;-75
2020/12/22 05:54:58;;;;;;;4.83;4.43;;;;;;;12.33;76.33;100147.41;6091023;29;20252;-75
2020/12/22 05:58:18;;;;;;;6.13;5.63;;;;;;;12.24;77.73;100152.88;6092245;29;20687;-75
2020/12/22 06:01:42;;;;;;;6.88;6.32;;;;;;;12.37;76.81;100149.03;6088348;29;21010;-74
2020/12/22 06:05:03;;;;;;;6.50;6.00;;;;;;;12.32;77.38;100174.41;6081770;29;20255;-74
2020/12/22 06:08:25;;;;;;;6.67;6.17;;;;;;;12.46;77.30;100150.53;6089789;29;20514;-74
2020/12/22 06:11:48;;;;;;;6.83;6.33;;;;;;;12.63;76.61;100155.28;6089809;29;20243;-73
2020/12/22 06:15:11;;;;;;;8.27;7.57;;;;;;;12.54;78.10;100156.41;6090781;29;20236;-74
2020/12/22 06:18:33;;;;;;;8.27;7.57;;;;;;;12.62;76.82;100150.97;6089643;29;20240;-74
2020/12/22 06:21:58;;;;;;;7.80;7.20;;;;;;;12.80;76.56;100168.72;6090731;29;20236;-73
2020/12/22 06:25:20;;;;;;;7.37;6.77;;;;;;;13.01;74.74;100161.19;6088823;29;20228;-74
2020/12/22 06:28:41;;;;;;;8.20;7.50;;;;;;;12.76;76.99;100168.88;6084140;29;20241;-75
2020/12/22 06:32:24;;;;;;;8.13;7.43;;;;;;;12.91;76.70;100170.16;6079477;29;20312;-73
2020/12/22 06:40:35;;;;;;;7.97;7.27;;;;;;;12.77;77.59;100174.03;6087456;29;20232;-76
2020/12/22 06:43:56;;;;;;;8.37;7.50;;;;;;;13.00;76.59;100175.97;6085296;29;20747;-76
2020/12/22 06:47:34;;;;;;;10.30;7.20;;;;;;;13.08;76.21;100183.59;6091946;29;20287;-77
2020/12/22 06:50:56;;;;;;;8.03;7.33;;;;;;;13.19;75.80;100185.91;6074871;28;20225;-77
2020/12/22 06:54:33;;;;;;;6.33;5.83;;;;;;;13.09;76.04;100172.25;6084114;29;20503;-75
2020/12/22 06:57:55;;;;;;;6.50;6.00;;;;;;;13.18;75.77;100182.44;6090716;29;20569;-77
2020/12/22 07:01:33;;;;;;;6.60;6.10;;;;;;;13.17;76.37;100185.94;6088038;29;20752;-74
2020/12/22 07:04:54;;;;;;;5.47;5.07;;;;;;;13.08;76.32;100196.66;6089020;29;20248;-77
2020/12/22 07:08:16;;;;;;;4.93;4.60;;;;;;;13.26;76.30;100213.59;6088464;29;20229;-76
2020/12/22 07:11:37;;;;;;;5.00;4.67;;;;;;;13.34;75.24;100210.78;6086315;29;20619;-75
2020/12/22 07:14:57;;;;;;;5.43;5.03;;;;;;;13.61;74.49;100213.44;6092040;29;20508;-77
2020/12/22 07:18:20;;;;;;;4.57;4.17;;;;;;;13.29;76.23;100223.09;6086081;29;20228;-75
2020/12/22 07:21:41;;;;;;;4.10;3.70;;;;;;;13.54;74.45;100218.88;6089767;29;20232;-75
2020/12/22 07:25:03;;;;;;;5.17;3.97;;;;;;;13.29;75.80;100218.72;6087144;29;20236;-75
2020/12/22 07:28:24;;;;;;;3.87;3.57;;;;;;;13.38;75.52;100222.88;6086001;29;20331;-77
2020/12/22 07:31:45;;;;;;;3.27;3.00;;;;;;;13.51;74.93;100224.22;6085279;29;20237;-76
2020/12/22 07:39:16;;;;;;;3.87;3.00;;;;;;;13.60;75.46;100236.13;6086412;29;20247;-75
2020/12/22 07:43:06;;;;;;;3.10;2.80;;;;;;;13.75;74.40;100245.28;6083718;29;20279;-75
2020/12/22 07:58:08;;;;;;;2.60;2.40;;;;;;;13.44;76.19;100266.28;6085936;29;20229;-75
2020/12/22 08:01:31;;;;;;;3.43;3.20;;;;;;;13.39;76.40;100266.41;6080054;29;20244;-76
2020/12/22 08:04:51;;;;;;;2.70;2.43;;;;;;;13.41;76.17;100267.22;6089397;29;20228;-77
2020/12/22 08:08:13;;;;;;;3.27;2.60;;;;;;;13.38;76.58;100264.72;6082652;29;20311;-78
2020/12/22 08:11:35;;;;;;;2.90;2.40;;;;;;;13.27;77.47;100277.19;6085800;29;20236;-76
2020/12/22 08:14:57;;;;;;;2.00;1.80;;;;;;;13.38;76.84;100278.63;6085248;29;20240;-77
2020/12/22 08:18:17;;;;;;;2.40;2.20;;;;;;;13.42;76.58;100282.03;6085072;29;20906;-76
2020/12/22 08:21:38;;;;;;;2.50;2.30;;;;;;;13.58;76.38;100277.19;6086354;28;20526;-77
2020/12/22 08:25:00;;;;;;;2.20;2.10;;;;;;;13.62;76.11;100285.81;6091551;29;20240;-74
2020/12/22 08:28:22;;;;;;;2.37;2.17;;;;;;;13.61;75.84;100289.31;6084250;29;20327;-77
2020/12/22 08:31:45;;;;;;;2.47;2.27;;;;;;;13.69;75.67;100284.72;6089212;29;20228;-78
2020/12/22 08:35:06;;;;;;;1.83;1.73;;;;;;;13.47;76.34;100295.81;6082332;29;20236;-74
2020/12/22 08:38:27;;;;;;;3.57;2.37;;;;;;;13.46;77.01;100304.56;6087679;29;20232;-75
2020/12/22 08:41:49;;;;;;;2.17;1.97;;;;;;;13.39;77.46;100308.25;6087901;29;20233;-75
2020/12/22 08:45:12;;;;;;;1.63;1.53;;;;;;;13.59;76.20;100300.69;6088738;29;20593;-77
2020/12/22 08:48:38;;;;;;;1.60;1.50;;;;;;;13.31;77.11;100316.31;6092412;29;20232;-75
2020/12/22 08:52:09;;;;;;;1.17;1.17;;;;;;;13.64;75.91;100324.09;6089717;29;20831;-73
2020/12/22 08:55:30;;;;;;;1.93;1.53;;;;;;;13.58;76.33;100330.34;6084713;29;20240;-76
2020/12/22 08:58:55;;;;;;;4.27;1.83;;;;;;;13.46;76.98;100332.50;6088966;29;20633;-76
2020/12/22 09:02:25;;;;;;;1.67;1.57;;;;;;;13.45;76.91;100329.00;6088087;29;20615;-76
2020/12/22 09:05:51;;;;;;;1.40;1.13;;;;;;;13.35;77.18;100338.00;6093891;29;20868;-76
2020/12/22 09:09:15;;;;;;;2.03;1.47;;;;;;;13.66;75.75;100339.75;6094538;29;20233;-76
2020/12/22 09:12:36;;;;;;;1.20;1.20;;;;;;;13.51;76.97;100357.63;6081389;29;20518;-78
2020/12/22 09:15:57;;;;;;;1.20;1.10;;;;;;;13.83;75.66;100355.81;6092805;29;20233;-76
2020/12/22 09:19:19;;;;;;;1.30;1.20;;;;;;;13.61;76.30;100359.94;6085350;29;20232;-77
2020/12/22 09:22:41;;;;;;;1.17;1.07;;;;;;;13.89;74.97;100363.47;6090313;29;20508;-77
2020/12/22 09:26:01;;;;;;;1.20;1.07;;;;;;;13.74;75.70;100359.53;6087522;29;20252;-77
2020/12/22 09:29:22;;;;;;;1.30;1.20;;;;;;;13.73;75.71;100351.75;6088460;28;20618;-77
2020/12/22 09:32:46;;;;;;;1.40;1.30;;;;;;;14.01;74.39;100353.53;6093430;29;20232;-76
2020/12/22 09:36:09;;;;;;;1.90;1.53;;;;;;;13.67;75.86;100371.13;6093799;29;20520;-75
2020/12/22 09:39:32;;;;;;;2.00;1.40;;;;;;;13.67;75.65;100375.50;6090409;29;20244;-76
2020/12/22 09:42:53;;;;;;;2.13;1.67;;;;;;;13.71;76.11;100377.97;6087541;29;20889;-76
2020/12/22 09:46:16;;;;;;;2.00;1.83;;;;;;;13.69;75.78;100376.31;6086771;29;20276;-77
2020/12/22 09:49:37;;;;;;;2.13;1.80;;;;;;;13.69;75.85;100368.47;6079535;29;20236;-75
2020/12/22 09:52:57;;;;;;;2.30;1.87;;;;;;;13.69;75.72;100378.94;6091380;29;20240;-75
2020/12/22 09:56:21;;;;;;;2.53;2.33;;;;;;;13.77;75.39;100392.63;6093199;29;20236;-75
2020/12/22 09:59:42;;;;;;;2.97;1.77;;;;;;;13.88;75.29;100381.84;6091369;29;20240;-75
2020/12/22 10:03:03;;;;;;;3.00;1.80;;;;;;;13.84;75.10;100382.84;6090660;29;20268;-76
2020/12/22 10:06:25;;;;;;;2.40;1.90;;;;;;;14.09;74.11;100393.44;6092697;29;20241;-77
2020/12/22 10:09:45;;;;;;;2.47;1.50;;;;;;;13.76;75.79;100381.31;6081864;29;20240;-77
2020/12/22 10:13:06;;;;;;;2.80;2.00;;;;;;;13.73;75.79;100372.69;6083319;29;20224;-78
2020/12/22 10:16:27;;;;;;;2.00;1.90;;;;;;;13.53;76.67;100379.34;6093765;29;20232;-78
2020/12/22 10:19:47;;;;;;;1.93;1.57;;;;;;;13.54;76.72;100390.66;6088068;29;20630;-78
2020/12/22 10:23:08;;;;;;;1.93;1.50;;;;;;;13.61;76.68;100386.09;6090960;28;20224;-77
2020/12/22 10:26:28;;;;;;;4.47;2.03;;;;;;;13.91;75.62;100385.22;6091513;29;20494;-76
2020/12/22 10:29:50;;;;;;;2.13;1.87;;;;;;;13.68;76.67;100392.91;6084945;29;20241;-76
2020/12/22 10:33:10;;;;;;;1.90;1.37;;;;;;;13.66;76.27;100399.94;6086649;29;20232;-75
2020/12/22 10:36:32;;;;;;;1.63;1.53;;;;;;;13.77;76.13;100392.63;6078048;29;20319;-75
2020/12/22 10:39:52;;;;;;;2.50;1.30;;;;;;;13.82;76.18;100393.34;6088622;29;20260;-75
2020/12/22 10:43:16;;;;;;;1.80;1.37;;;;;;;14.25;74.33;100425.25;6062539;29;20233;-75
2020/12/22 10:46:37;;;;;;;2.47;1.10;;;;;;;14.55;73.10;100423.44;6074078;29;20616;-75
2020/12/22 10:49:58;;;;;;;1.20;0.97;;;;;;;14.65;72.10;100435.38;6080434;29;20237;-76
2020/12/22 10:53:19;;;;;;;0.57;0.57;;;;;;;14.43;71.93;100450.03;6081393;29;20248;-75
2020/12/22 10:56:43;;;;;;;0.80;0.60;;;;;;;14.19;72.23;100473.44;6080842;29;20248;-74
2020/12/22 11:00:05;;;;;;;0.60;0.50;;;;;;;14.30;71.81;100463.47;6087777;28;20236;-75
2020/12/22 11:03:26;;;;;;;1.17;0.70;;;;;;;14.22;71.58;100483.81;6086114;29;20225;-75
2020/12/22 11:06:58;;;;;;;0.50;0.50;;;;;;;14.48;70.60;100492.66;6076702;29;20233;-74
2020/12/22 11:10:19;;;;;;;2.93;0.90;;;;;;;14.26;70.30;100498.53;6072642;29;20233;-75
2020/12/22 11:13:39;;;;;;;1.33;0.93;;;;;;;14.01;70.61;100516.72;6075201;29;20679;-75
2020/12/22 11:17:00;;;;;;;1.53;1.43;;;;;;;13.52;71.01;100524.13;6076977;29;20514;-76
2020/12/22 11:20:21;;;;;;;3.53;2.53;;;;;;;13.53;70.59;100548.53;6076128;29;20837;-76
2020/12/22 11:23:42;;;;;;;3.03;2.73;;;;;;;13.59;69.52;100557.09;6085591;29;20248;-75
2020/12/22 11:27:02;;;;;;;5.17;3.50;;;;;;;13.43;69.50;100560.97;6077131;29;20359;-75
2020/12/22 11:30:22;;;;;;;4.60;3.10;;;;;;;13.27;69.04;100575.31;6070994;29;20604;-74
2020/12/22 11:33:44;;;;;;;3.70;2.93;;;;;;;13.25;69.62;100584.94;6076971;29;20240;-75
2020/12/22 11:37:06;;;;;;;7.73;3.57;;;;;;;13.08;69.82;100598.41;6071902;29;20264;-78
2020/12/22 11:40:26;;;;;;;7.20;4.17;;;;;;;13.35;69.10;100612.63;6070287;29;20260;-79
2020/12/22 11:43:47;;;;;;;7.53;3.40;;;;;;;13.13;69.29;100625.31;6060002;29;20232;-78
2020/12/22 11:47:08;;;;;;;6.87;3.60;;;;;;;12.98;69.76;100629.97;6068871;29;20241;-76
2020/12/22 11:50:28;;;;;;;6.00;3.40;;;;;;;12.75;69.89;100635.69;6068518;29;20327;-75
2020/12/22 11:53:50;;;;;;;6.07;3.80;;;;;;;12.79;69.32;100650.44;6073827;29;20233;-76
2020/12/22 11:57:11;;;;;;;8.47;3.87;;;;;;;12.55;70.04;100661.38;6065261;29;20715;-76
2020/12/22 12:00:31;;;;;;;6.27;4.10;;;;;;;13.00;69.04;100674.38;6078914;29;20244;-76
2020/12/22 12:03:52;;;;;;;12.93;3.97;;;;;;;12.91;69.00;100662.38;6077556;29;20236;-78
2020/12/22 12:07:13;;;;;;;5.03;4.27;;;;;;;12.59;68.88;100670.88;6074505;29;20240;-76
2020/12/22 12:10:35;;;;;;;6.23;3.27;;;;;;;12.92;68.85;100694.59;6074834;29;20484;-75
2020/12/22 12:13:55;;;;;;;7.13;4.20;;;;;;;12.84;68.99;100691.28;6072280;29;20685;-76
2020/12/22 12:17:16;;;;;;;6.30;2.90;;;;;;;12.84;68.23;100697.38;6071601;29;20233;-76
2020/12/22 12:20:36;;;;;;;6.90;4.23;;;;;;;12.82;68.74;100703.53;6071984;29;20236;-78
2020/12/22 12:23:57;;;;;;;2.93;1.70;;;;;;;12.73;66.86;100700.19;6084846;28;20232;-79
2020/12/22 12:27:18;;;;;;;6.13;2.03;;;;;;;13.06;67.30;100704.75;6077629;29;20224;-78
2020/12/22 12:30:38;;;;;;;8.30;3.87;;;;;;;12.94;66.55;100716.34;6075296;29;20236;-77
2020/12/22 12:33:59;;;;;;;5.33;2.40;;;;;;;13.16;66.19;100719.34;6071239;29;20316;-74
2020/12/22 12:37:20;;;;;;;2.63;2.10;;;;;;;12.94;67.23;100718.94;6070890;29;20514;-80
2020/12/22 12:40:40;;;;;;;7.30;2.90;;;;;;;13.15;66.30;100726.34;6073668;29;20252;-78
2020/12/22 12:44:02;;;;;;;8.63;3.17;;;;;;;13.37;64.88;100728.53;6070079;29;20228;-78
2020/12/22 12:47:23;;;;;;;2.27;1.73;;;;;;;12.79;66.30;100736.66;6081082;29;20323;-81
2020/12/22 12:50:44;;;;;;;3.83;1.63;;;;;;;13.04;65.95;100757.06;6079257;29;20233;-75
2020/12/22 12:54:06;;;;;;;4.67;1.30;;;;;;;12.95;66.58;100752.03;6064956;29;20259;-76
2020/12/22 12:57:26;;;;;;;3.90;1.50;;;;;;;12.73;66.38;100757.66;6091265;29;20501;-78
2020/12/22 13:00:47;;;;;;;3.23;1.17;;;;;;;12.57;67.40;100756.25;6072141;29;20655;-77
2020/12/22 13:04:09;;;;;;;4.30;1.50;;;;;;;12.61;67.66;100770.97;6082077;29;20236;-78
2020/12/22 13:07:29;;;;;;;3.67;1.43;;;;;;;12.81;66.71;100786.28;6090410;29;20882;-79
2020/12/22 13:10:50;;;;;;;4.77;1.83;;;;;;;12.76;67.17;100786.38;6067596;29;20343;-77
2020/12/22 13:14:11;;;;;;;6.63;2.40;;;;;;;12.78;67.26;100789.81;6073877;29;20232;-79
2020/12/22 13:17:32;;;;;;;3.70;1.33;;;;;;;12.84;66.06;100801.06;6078342;29;20237;-79
2020/12/22 13:20:53;;;;;;;3.27;1.30;;;;;;;12.84;65.94;100812.34;6074802;29;20245;-79
2020/12/22 13:24:13;;;;;;;5.23;2.10;;;;;;;12.93;65.70;100821.75;6075027;29;20221;-79
2020/12/22 13:27:34;;;;;;;5.57;1.73;;;;;;;12.90;65.77;100840.13;6073167;29;20528;-79
2020/12/22 13:30:55;;;;;;;5.73;1.60;;;;;;;12.64;65.61;100840.59;6084220;29;20260;-77
2020/12/22 13:34:16;;;;;;;6.67;1.73;;;;;;;12.82;66.26;100849.88;6083394;29;20674;-76
2020/12/22 13:37:37;;;;;;;4.97;1.80;;;;;;;12.94;65.54;100855.72;6080187;29;20249;-77
2020/12/22 13:40:58;;;;;;;6.43;2.23;;;;;;;13.12;65.40;100875.44;6084878;29;21100;-75
2020/12/22 13:44:19;;;;;;;5.47;1.93;;;;;;;13.05;65.55;100873.00;6081786;28;20237;-76
2020/12/22 13:47:40;;;;;;;8.03;3.50;;;;;;;13.28;65.12;100875.13;6085159;29;20811;-79
2020/12/22 13:51:01;;;;;;;4.57;1.57;;;;;;;12.95;65.97;100883.59;6089616;29;20552;-77
2020/12/22 13:54:24;;;;;;;7.53;3.00;;;;;;;12.99;65.97;100900.09;6082679;29;20623;-74
2020/12/22 13:57:46;;;;;;;4.13;2.30;;;;;;;12.89;65.98;100911.59;6088308;29;20228;-77
2020/12/22 14:01:07;;;;;;;6.37;2.87;;;;;;;12.63;66.62;100919.88;6075578;29;20236;-76
2020/12/22 14:04:27;;;;;;;7.33;1.73;;;;;;;12.63;66.29;100930.31;6075814;29;20248;-76
2020/12/22 14:07:49;;;;;;;8.47;3.43;;;;;;;12.73;65.35;100935.34;6071950;29;20614;-76
2020/12/22 14:11:10;;;;;;;5.77;1.93;;;;;;;12.65;65.53;100947.69;6090644;29;20530;-76
2020/12/22 14:14:31;;;;;;;9.00;1.87;;;;;;;12.66;65.61;100938.97;6092281;29;20232;-76
2020/12/22 14:17:51;;;;;;;12.87;3.10;;;;;;;12.80;65.07;100947.44;6088496;29;20249;-76
2020/12/22 14:21:15;;;;;;;4.93;2.10;;;;;;;12.80;65.04;100965.75;6088840;29;20808;-76
2020/12/22 14:24:39;;;;;;;9.07;2.53;;;;;;;12.56;65.31;100973.94;6090248;29;20240;-76
2020/12/22 14:27:59;;;;;;;5.30;1.63;;;;;;;12.10;66.21;100985.03;6089504;29;20233;-75
2020/12/22 14:31:20;;;;;;;7.93;2.13;;;;;;;12.06;65.97;100985.94;6090334;29;20229;-76
2020/12/22 14:34:41;;;;;;;13.40;2.23;;;;;;;12.17;64.75;100995.38;6090504;29;20718;-76
2020/12/22 14:38:01;;;;;;;8.00;1.93;;;;;;;12.23;64.70;101002.25;6088281;29;20240;-75
2020/12/22 14:41:22;;;;;;;4.83;2.37;;;;;;;12.27;64.23;101006.56;6087603;29;20647;-76
2020/12/22 14:44:42;;;;;;;10.03;6.27;;;;;;;12.18;64.97;101018.00;6088737;29;20237;-76
2020/12/22 14:48:03;;;;;;;8.77;2.30;;;;;;;12.22;64.35;101034.47;6086254;29;20258;-75
2020/12/22 14:51:24;;;;;;;9.33;1.97;;;;;;;12.23;63.96;101032.72;6080117;29;20642;-75
2020/12/22 14:54:44;;;;;;;8.93;3.60;;;;;;;12.07;63.49;101042.50;6071647;29;20331;-76
2020/12/22 14:58:06;;;;;;;5.23;1.90;;;;;;;12.27;62.25;101061.41;6086986;29;20248;-75
2020/12/22 15:01:28;;;;;;;6.72;1.77;;;;;;;11.92;61.39;101070.50;6082527;29;20768;-74
2020/12/22 15:04:48;;;;;;;4.70;1.73;;;;;;;11.98;60.78;101060.00;6087220;29;20236;-74
2020/12/22 15:08:08;;;;;;;9.73;2.40;;;;;;;12.33;60.82;101065.66;6091542;29;20840;-75
2020/12/22 15:11:29;;;;;;;7.83;2.43;;;;;;;12.35;59.24;101064.78;6086862;29;20579;-74
2020/12/22 15:14:50;;;;;;;6.33;1.73;;;;;;;12.34;59.48;101060.44;6085662;29;20236;-75
2020/12/22 15:18:11;;;;;;;5.00;1.87;;;;;;;12.21;60.13;101071.91;6074861;29;20297;-76
2020/12/22 15:21:31;;;;;;;9.77;3.60;;;;;;;12.36;60.88;101074.34;6086367;29;20240;-76
2020/12/22 15:24:52;;;;;;;4.83;1.70;;;;;;;12.17;60.44;101088.50;6076183;29;20244;-75
2020/12/22 15:28:14;;;;;;;10.30;2.30;;;;;;;11.99;61.15;101095.63;6088262;29;20229;-76
2020/12/22 15:31:35;;;;;;;10.43;3.50;;;;;;;12.08;61.74;101101.63;6091068;29;20607;-75
2020/12/22 15:34:55;;;;;;;7.90;2.30;;;;;;;11.96;61.94;101103.53;6078517;29;20236;-76
2020/12/22 15:38:15;;;;;;;14.77;3.90;;;;;;;12.04;62.32;101120.81;6082371;29;20228;-76
2020/12/22 15:41:36;;;;;;;9.20;2.67;;;;;;;11.97;61.92;101120.91;6080410;28;20244;-74
2020/12/22 15:44:58;;;;;;;9.37;2.07;;;;;;;12.01;62.51;101129.56;6073115;29;20252;-78
2020/12/22 15:48:23;;;;;;;20.03;4.47;;;;;;;12.04;60.60;101139.09;6081981;29;20831;-78
2020/12/22 15:51:43;;;;;;;14.53;3.10;;;;;;;12.09;61.61;101147.75;6091187;29;20249;-77
2020/12/22 15:55:03;;;;;;;7.83;2.60;;;;;;;12.06;61.63;101155.59;6083829;29;20232;-76
2020/12/22 15:58:25;;;;;;;13.93;3.60;;;;;;;11.97;61.31;101161.81;6082559;29;20396;-76